Time;durP1;ratioP1;P1;durP2;ratioP2;P2;SDS_P1;SDS_P2;PMS_P1;PMS_P2;Temp;Humidity;BMP_temperature;BMP_pressure;BME280_temperature;BME280_humidity;BME280_pressure;Samples;Min_cycle;Max_cycle;Signal;HPM_P1;HPM_P2
2021/09/04 00:01:05;;;;;;;0.30;0.30;;;14.00;99.90;;;;;;5053394;28;20405;-68
2021/09/04 00:03:30;;;;;;;0.30;0.30;;;14.10;99.90;;;;;;5053556;28;20173;-67
2021/09/04 00:05:56;;;;;;;0.40;0.40;;;14.10;99.90;;;;;;5052963;28;20194;-67
2021/09/04 00:08:22;;;;;;;0.30;0.30;;;14.10;99.90;;;;;;5053217;28;20173;-66
2021/09/04 00:10:47;;;;;;;0.30;0.30;;;14.10;99.90;;;;;;5053405;28;20166;-68
2021/09/04 00:13:13;;;;;;;0.30;0.30;;;14.10;99.90;;;;;;5053227;28;20169;-67
2021/09/04 00:15:39;;;;;;;0.30;0.30;;;14.10;99.90;;;;;;5053217;28;20214;-66
2021/09/04 00:18:04;;;;;;;0.30;0.30;;;14.00;99.90;;;;;;5053216;28;20232;-67
2021/09/04 00:20:30;;;;;;;0.30;0.30;;;14.00;99.90;;;;;;5053243;28;20166;-67
2021/09/04 00:22:56;;;;;;;0.30;0.30;;;14.00;99.90;;;;;;5053531;28;20574;-66
2021/09/04 00:25:22;;;;;;;0.60;0.60;;;14.00;99.90;;;;;;5051843;28;20233;-68
2021/09/04 00:27:48;;;;;;;0.30;0.30;;;14.00;99.90;;;;;;5053372;28;20432;-68
2021/09/04 00:30:14;;;;;;;0.40;0.40;;;14.00;99.90;;;;;;5053158;28;20200;-68
2021/09/04 00:32:40;;;;;;;0.40;0.40;;;14.00;99.90;;;;;;5053164;28;20880;-67
2021/09/04 00:35:06;;;;;;;0.30;0.30;;;14.00;99.90;;;;;;5053047;28;20243;-67
2021/09/04 00:37:32;;;;;;;0.30;0.30;;;14.00;99.90;;;;;;5052723;28;20535;-67
2021/09/04 00:39:58;;;;;;;0.40;0.40;;;13.90;99.90;;;;;;5052959;28;20502;-67
2021/09/04 00:42:23;;;;;;;0.30;0.30;;;14.00;99.90;;;;;;5052947;28;20177;-68
2021/09/04 00:44:49;;;;;;;0.30;0.30;;;14.00;99.90;;;;;;5052744;28;20261;-68
2021/09/04 00:47:15;;;;;;;0.30;0.30;;;14.00;99.90;;;;;;5052716;28;20198;-66
2021/09/04 00:49:40;;;;;;;0.30;0.30;;;14.00;99.90;;;;;;5052962;28;20178;-67
2021/09/04 00:52:06;;;;;;;0.30;0.30;;;14.00;99.90;;;;;;5054156;28;20182;-68
2021/09/04 00:54:34;;;;;;;0.30;0.30;;;14.00;99.90;;;;;;5056469;28;20186;-66
2021/09/04 00:57:01;;;;;;;0.50;0.50;;;13.90;99.90;;;;;;5056283;28;20541;-66
2021/09/04 00:59:27;;;;;;;0.30;0.30;;;14.00;99.90;;;;;;5056634;28;20822;-68
2021/09/04 01:01:53;;;;;;;0.30;0.30;;;13.90;99.90;;;;;;5056516;28;20402;-68
2021/09/04 01:04:20;;;;;;;0.30;0.30;;;13.90;99.90;;;;;;5056434;28;20402;-68
2021/09/04 01:06:47;;;;;;;0.30;0.30;;;14.00;99.90;;;;;;5056102;28;20250;-66
2021/09/04 01:09:13;;;;;;;0.30;0.30;;;14.00;99.90;;;;;;5056424;28;20437;-67
2021/09/04 01:11:40;;;;;;;0.30;0.30;;;14.00;99.90;;;;;;5056372;28;20889;-66
2021/09/04 01:14:05;;;;;;;0.30;0.30;;;14.00;99.90;;;;;;5056317;28;20491;-68
2021/09/04 01:16:39;;;;;;;0.40;0.40;;;14.00;99.90;;;;;;5055774;28;21046;-67
2021/09/04 01:19:05;;;;;;;0.30;0.30;;;14.10;99.90;;;;;;5056193;28;20219;-68
2021/09/04 01:21:32;;;;;;;0.30;0.30;;;14.00;99.90;;;;;;5055978;28;20500;-67
2021/09/04 01:24:00;;;;;;;6.00;1.70;;;14.00;99.90;;;;;;5055958;28;20415;-68
2021/09/04 01:26:26;;;;;;;0.33;0.33;;;14.10;99.90;;;;;;5055741;28;20449;-67
2021/09/04 01:28:55;;;;;;;0.30;0.30;;;14.10;99.90;;;;;;5056046;28;20489;-68
2021/09/04 01:31:22;;;;;;;0.30;0.30;;;14.10;99.90;;;;;;5055954;28;20772;-66
2021/09/04 01:33:47;;;;;;;0.30;0.30;;;14.00;99.90;;;;;;5055729;28;20423;-66
2021/09/04 01:36:27;;;;;;;0.30;0.30;;;14.00;99.90;;;;;;5055441;28;20444;-68
2021/09/04 01:38:53;;;;;;;0.30;0.30;;;14.00;99.90;;;;;;5055935;28;20166;-66
2021/09/04 01:41:18;;;;;;;0.30;0.30;;;14.00;99.90;;;;;;5055758;28;20403;-67
2021/09/04 01:43:44;;;;;;;0.30;0.30;;;13.90;99.90;;;;;;5055715;28;20177;-69
2021/09/04 01:46:09;;;;;;;0.30;0.30;;;13.90;99.90;;;;;;5055177;28;20225;-67
2021/09/04 01:48:35;;;;;;;0.30;0.30;;;13.90;99.90;;;;;;5055625;28;20519;-68
2021/09/04 01:51:01;;;;;;;0.30;0.30;;;14.00;99.90;;;;;;5055643;28;20168;-68
2021/09/04 01:53:26;;;;;;;0.30;0.30;;;13.90;99.90;;;;;;5055578;28;20166;-66
2021/09/04 01:55:52;;;;;;;0.50;0.50;;;13.90;99.90;;;;;;5055245;28;20241;-67
2021/09/04 01:58:18;;;;;;;0.30;0.30;;;13.90;99.90;;;;;;5055455;28;20172;-66
2021/09/04 02:00:43;;;;;;;0.30;0.30;;;13.80;99.90;;;;;;5055211;28;20166;-66
2021/09/04 02:03:09;;;;;;;0.30;0.30;;;13.80;99.90;;;;;;5053709;28;20179;-68
2021/09/04 02:05:35;;;;;;;0.30;0.30;;;13.80;99.90;;;;;;5054924;28;20647;-68
2021/09/04 02:08:01;;;;;;;0.30;0.30;;;13.80;99.90;;;;;;5053782;28;20412;-68
2021/09/04 02:10:26;;;;;;;0.30;0.30;;;13.80;99.90;;;;;;5055341;28;20166;-68
2021/09/04 02:12:52;;;;;;;0.40;0.40;;;13.80;99.90;;;;;;5055235;28;20263;-68
2021/09/04 02:15:18;;;;;;;0.30;0.30;;;13.70;99.90;;;;;;5054860;28;20320;-66
2021/09/04 02:17:44;;;;;;;0.30;0.30;;;13.70;99.90;;;;;;5054698;28;20194;-66
2021/09/04 02:20:10;;;;;;;0.30;0.30;;;13.70;99.90;;;;;;5054907;28;20405;-66
2021/09/04 02:22:36;;;;;;;0.30;0.30;;;13.70;99.90;;;;;;5054688;28;20400;-66
2021/09/04 02:25:04;;;;;;;0.30;0.30;;;13.60;99.90;;;;;;5054777;28;20790;-67
2021/09/04 02:27:29;;;;;;;0.30;0.30;;;13.50;99.90;;;;;;5054684;28;20178;-68
2021/09/04 02:29:55;;;;;;;0.30;0.30;;;13.50;99.90;;;;;;5053377;28;20511;-66
2021/09/04 02:32:21;;;;;;;0.30;0.30;;;13.50;99.90;;;;;;5054656;28;20171;-68
2021/09/04 02:34:46;;;;;;;0.30;0.30;;;13.50;99.90;;;;;;5054579;28;20285;-67
2021/09/04 02:37:12;;;;;;;0.30;0.30;;;13.50;99.90;;;;;;5054413;28;20238;-67
2021/09/04 02:39:38;;;;;;;0.30;0.30;;;13.50;99.90;;;;;;5054584;28;20624;-68
2021/09/04 02:42:03;;;;;;;0.30;0.30;;;13.50;99.90;;;;;;5054396;28;20169;-68
2021/09/04 02:44:29;;;;;;;0.30;0.30;;;13.40;99.90;;;;;;5054139;28;20176;-65
2021/09/04 02:46:55;;;;;;;0.30;0.30;;;13.40;99.90;;;;;;5054284;28;20170;-65
2021/09/04 02:49:20;;;;;;;0.30;0.30;;;13.40;99.90;;;;;;5054387;28;20179;-67
2021/09/04 02:51:46;;;;;;;0.30;0.30;;;13.30;99.90;;;;;;5054360;28;20554;-68
2021/09/04 02:54:12;;;;;;;0.30;0.30;;;13.30;99.90;;;;;;5054353;28;20178;-67
2021/09/04 02:56:38;;;;;;;0.30;0.30;;;13.30;99.90;;;;;;5053797;28;20458;-67
2021/09/04 02:59:03;;;;;;;0.30;0.30;;;13.30;99.90;;;;;;5054079;28;20176;-68
2021/09/04 03:01:29;;;;;;;0.30;0.30;;;13.40;99.90;;;;;;5054116;28;20397;-66
2021/09/04 03:03:55;;;;;;;0.30;0.30;;;13.40;99.90;;;;;;5054134;28;20250;-68
2021/09/04 03:06:20;;;;;;;0.30;0.30;;;13.40;99.90;;;;;;5053745;28;20283;-67
2021/09/04 03:08:46;;;;;;;0.30;0.30;;;13.30;99.90;;;;;;5054104;28;20174;-68
2021/09/04 03:11:12;;;;;;;0.30;0.30;;;13.30;99.90;;;;;;5054069;28;20167;-66
2021/09/04 03:13:37;;;;;;;0.30;0.30;;;13.30;99.90;;;;;;5054281;28;20174;-67
2021/09/04 03:16:03;;;;;;;0.30;0.30;;;13.40;99.90;;;;;;5053102;28;20198;-67
2021/09/04 03:18:29;;;;;;;0.30;0.30;;;13.40;99.90;;;;;;5053903;28;20166;-67
2021/09/04 03:20:54;;;;;;;0.30;0.30;;;13.30;99.90;;;;;;5053909;28;20478;-67
2021/09/04 03:23:20;;;;;;;0.30;0.30;;;13.30;99.90;;;;;;5054071;28;20193;-66
2021/09/04 03:25:46;;;;;;;0.30;0.30;;;13.30;99.90;;;;;;5053609;28;20207;-67
2021/09/04 03:28:11;;;;;;;0.30;0.30;;;13.40;99.90;;;;;;5054100;28;20260;-66
2021/09/04 03:30:37;;;;;;;0.50;0.50;;;13.40;99.90;;;;;;5053662;28;20213;-68
2021/09/04 03:33:03;;;;;;;0.30;0.30;;;13.40;99.90;;;;;;5053636;28;20177;-66
2021/09/04 03:35:28;;;;;;;0.30;0.30;;;13.40;99.90;;;;;;5053395;28;20235;-67
2021/09/04 03:37:54;;;;;;;0.30;0.30;;;13.40;99.90;;;;;;5053603;28;20205;-66
2021/09/04 03:40:20;;;;;;;0.30;0.30;;;13.40;99.90;;;;;;5053731;28;20535;-67
2021/09/04 03:42:46;;;;;;;1.67;1.33;;;13.40;99.90;;;;;;5053649;28;20235;-67
2021/09/04 03:45:11;;;;;;;0.30;0.30;;;13.40;99.90;;;;;;5053459;28;20224;-68
2021/09/04 03:47:37;;;;;;;0.30;0.30;;;13.40;99.90;;;;;;5053309;28;20177;-67
2021/09/04 03:50:03;;;;;;;0.30;0.30;;;13.40;99.90;;;;;;5053624;28;20171;-69
2021/09/04 03:52:29;;;;;;;0.30;0.30;;;13.40;99.90;;;;;;5053543;28;20588;-66
2021/09/04 03:54:54;;;;;;;0.30;0.30;;;13.40;99.90;;;;;;5053368;28;20516;-68
2021/09/04 03:57:20;;;;;;;0.30;0.30;;;13.30;99.90;;;;;;5053037;28;20226;-66
2021/09/04 03:59:46;;;;;;;0.30;0.30;;;13.20;99.90;;;;;;5053285;28;20202;-66
2021/09/04 04:02:11;;;;;;;0.30;0.30;;;13.00;99.90;;;;;;5053358;28;20162;-67
2021/09/04 04:04:37;;;;;;;0.30;0.30;;;13.10;99.90;;;;;;5053262;28;20190;-68
2021/09/04 04:07:02;;;;;;;0.30;0.30;;;13.10;99.90;;;;;;5053202;28;20206;-68
2021/09/04 04:09:28;;;;;;;0.30;0.30;;;13.10;99.90;;;;;;5053398;28;20204;-68
2021/09/04 04:11:54;;;;;;;0.30;0.30;;;13.10;99.90;;;;;;5053332;28;20173;-67
2021/09/04 04:14:19;;;;;;;0.80;0.73;;;13.10;99.90;;;;;;5053508;28;20170;-66
2021/09/04 04:16:45;;;;;;;0.30;0.30;;;13.10;99.90;;;;;;5053086;28;20193;-67
2021/09/04 04:19:10;;;;;;;0.30;0.30;;;13.10;99.90;;;;;;5053241;28;20167;-66
2021/09/04 04:21:36;;;;;;;0.30;0.30;;;13.10;99.90;;;;;;5053232;28;20504;-68
2021/09/04 04:24:03;;;;;;;0.30;0.30;;;13.20;99.90;;;;;;5053272;28;20176;-68
2021/09/04 04:26:29;;;;;;;0.80;0.80;;;13.20;99.90;;;;;;5054533;28;20216;-66
2021/09/04 04:28:55;;;;;;;0.30;0.30;;;13.20;99.90;;;;;;5057450;28;20673;-66
2021/09/04 04:31:20;;;;;;;0.30;0.30;;;13.10;99.90;;;;;;5057167;28;20265;-67
2021/09/04 04:33:46;;;;;;;0.30;0.30;;;13.10;99.90;;;;;;5057135;28;20174;-66
2021/09/04 04:36:12;;;;;;;0.30;0.30;;;13.10;99.90;;;;;;5056643;28;20193;-68
2021/09/04 04:38:38;;;;;;;0.30;0.30;;;13.10;99.90;;;;;;5057045;28;20206;-68
2021/09/04 04:41:03;;;;;;;0.30;0.30;;;13.10;99.90;;;;;;5056918;28;20440;-68
2021/09/04 04:43:30;;;;;;;0.30;0.30;;;13.10;99.90;;;;;;5056745;28;20169;-68
2021/09/04 04:45:55;;;;;;;0.30;0.30;;;13.10;99.90;;;;;;5056416;28;20206;-67
2021/09/04 04:48:21;;;;;;;0.30;0.30;;;13.10;99.90;;;;;;5056889;28;20813;-68
2021/09/04 04:50:47;;;;;;;0.30;0.30;;;13.20;99.90;;;;;;5056842;28;20625;-67
2021/09/04 04:53:13;;;;;;;0.30;0.30;;;13.20;99.90;;;;;;5056723;28;20295;-67
2021/09/04 04:55:39;;;;;;;0.30;0.30;;;13.20;99.90;;;;;;5056391;28;20451;-68
2021/09/04 04:58:04;;;;;;;0.30;0.30;;;13.20;99.90;;;;;;5056576;28;20209;-68
2021/09/04 05:00:30;;;;;;;0.30;0.30;;;13.20;99.90;;;;;;5056501;28;20170;-67
2021/09/04 05:02:56;;;;;;;0.50;0.50;;;13.20;99.90;;;;;;5056471;28;20251;-67
2021/09/04 05:05:22;;;;;;;0.30;0.30;;;13.20;99.90;;;;;;5056203;28;20212;-67
2021/09/04 05:07:47;;;;;;;0.30;0.30;;;13.30;99.90;;;;;;5056408;28;20170;-66
2021/09/04 05:10:13;;;;;;;0.40;0.40;;;13.30;99.90;;;;;;5056395;28;20631;-67
2021/09/04 05:12:39;;;;;;;0.30;0.30;;;13.30;99.90;;;;;;5056483;28;20291;-68
2021/09/04 05:15:05;;;;;;;0.30;0.30;;;13.40;99.90;;;;;;5056153;28;20239;-68
2021/09/04 05:17:31;;;;;;;0.30;0.30;;;13.40;99.90;;;;;;5054851;28;20209;-66
2021/09/04 05:20:07;;;;;;;0.30;0.30;;;13.40;99.90;;;;;;5056277;28;20493;-68
2021/09/04 05:22:33;;;;;;;0.30;0.30;;;13.50;99.90;;;;;;5056347;28;20405;-68
2021/09/04 05:24:59;;;;;;;0.30;0.30;;;13.50;99.90;;;;;;5055801;28;20418;-66
2021/09/04 05:27:25;;;;;;;0.30;0.30;;;13.50;99.90;;;;;;5055158;28;20779;-68
2021/09/04 05:29:50;;;;;;;0.30;0.30;;;13.60;99.90;;;;;;5053838;28;20523;-68
2021/09/04 05:32:23;;;;;;;0.30;0.30;;;13.70;99.90;;;;;;5053366;28;20534;-67
2021/09/04 05:34:51;;;;;;;0.30;0.30;;;13.80;99.90;;;;;;5055932;28;20192;-68
2021/09/04 05:37:18;;;;;;;0.30;0.30;;;13.90;99.90;;;;;;5053646;28;20463;-68
2021/09/04 05:39:45;;;;;;;0.30;0.30;;;13.90;99.90;;;;;;5055648;28;20399;-68
2021/09/04 05:42:10;;;;;;;0.30;0.30;;;13.90;99.90;;;;;;5055784;28;20402;-67
2021/09/04 05:44:36;;;;;;;0.30;0.30;;;13.90;99.90;;;;;;5055588;28;20397;-66
2021/09/04 05:47:02;;;;;;;0.63;0.63;;;14.00;99.90;;;;;;5055787;28;20187;-68
2021/09/04 05:49:27;;;;;;;0.30;0.30;;;14.00;99.90;;;;;;5055662;28;20182;-69
2021/09/04 05:51:53;;;;;;;0.30;0.30;;;14.00;99.90;;;;;;5055606;28;20176;-67
2021/09/04 05:54:19;;;;;;;0.30;0.30;;;14.10;99.90;;;;;;5055584;28;20177;-68
2021/09/04 05:56:44;;;;;;;0.30;0.30;;;14.10;99.90;;;;;;5055213;28;20190;-67
2021/09/04 05:59:10;;;;;;;0.30;0.30;;;14.10;99.90;;;;;;5055427;28;20220;-65
2021/09/04 06:01:35;;;;;;;0.30;0.30;;;14.20;99.90;;;;;;5055463;28;20529;-66
2021/09/04 06:04:01;;;;;;;0.30;0.30;;;14.30;99.90;;;;;;5055417;28;20193;-68
2021/09/04 06:06:27;;;;;;;0.30;0.30;;;14.40;99.90;;;;;;5054978;28;20202;-66
2021/09/04 06:08:53;;;;;;;0.50;0.50;;;14.60;99.90;;;;;;5055162;28;20177;-68
2021/09/04 06:11:18;;;;;;;0.30;0.30;;;14.80;99.90;;;;;;5055469;28;20407;-66
2021/09/04 06:13:44;;;;;;;0.30;0.30;;;15.00;99.90;;;;;;5055253;28;20174;-67
2021/09/04 06:16:10;;;;;;;0.30;0.30;;;15.40;99.90;;;;;;5054963;28;20221;-69
2021/09/04 06:18:35;;;;;;;0.30;0.30;;;15.60;99.90;;;;;;5055126;28;20249;-65
2021/09/04 06:21:01;;;;;;;0.30;0.30;;;15.90;99.90;;;;;;5055023;28;20173;-68
2021/09/04 06:23:27;;;;;;;0.30;0.30;;;16.20;99.90;;;;;;5055030;28;20185;-66
2021/09/04 06:25:52;;;;;;;0.30;0.30;;;16.40;99.80;;;;;;5054529;28;20190;-68
2021/09/04 06:28:18;;;;;;;0.67;0.67;;;16.70;99.60;;;;;;5054810;28;20173;-68
2021/09/04 06:30:44;;;;;;;0.30;0.30;;;16.90;99.30;;;;;;5054800;28;20178;-68
2021/09/04 06:33:09;;;;;;;0.30;0.30;;;17.20;99.20;;;;;;5054833;28;20169;-67
2021/09/04 06:35:35;;;;;;;0.30;0.30;;;17.50;99.50;;;;;;5054184;28;20185;-68
2021/09/04 06:38:01;;;;;;;0.30;0.30;;;17.80;99.00;;;;;;5054339;28;20686;-66
2021/09/04 06:40:26;;;;;;;0.30;0.30;;;18.10;98.10;;;;;;5054909;28;20204;-68
2021/09/04 06:42:52;;;;;;;0.30;0.30;;;18.40;97.60;;;;;;5054509;28;20169;-67
2021/09/04 06:45:18;;;;;;;0.30;0.30;;;18.80;97.00;;;;;;5054326;28;20209;-66
2021/09/04 06:47:43;;;;;;;0.40;0.40;;;19.20;96.80;;;;;;5054416;28;20662;-68
2021/09/04 06:50:10;;;;;;;0.40;0.40;;;19.90;96.20;;;;;;5053557;28;20162;-67
2021/09/04 06:52:35;;;;;;;0.30;0.30;;;20.50;94.90;;;;;;5054679;28;20172;-68
2021/09/04 06:55:01;;;;;;;0.30;0.30;;;20.90;94.50;;;;;;5054140;28;20432;-68
2021/09/04 06:57:27;;;;;;;0.30;0.30;;;21.20;94.10;;;;;;5054051;28;20205;-68
2021/09/04 06:59:52;;;;;;;0.30;0.30;;;21.40;93.70;;;;;;5054293;28;20177;-67
2021/09/04 07:02:18;;;;;;;0.50;0.50;;;21.50;93.70;;;;;;5054362;28;20630;-66
2021/09/04 07:04:43;;;;;;;0.30;0.30;;;21.70;93.70;;;;;;5054146;28;20197;-67
2021/09/04 07:07:09;;;;;;;0.30;0.30;;;21.70;93.20;;;;;;5053941;28;20178;-66
2021/09/04 07:09:37;;;;;;;0.30;0.30;;;21.90;93.10;;;;;;5054027;28;20178;-67
2021/09/04 07:12:03;;;;;;;0.30;0.30;;;22.50;91.50;;;;;;5054147;28;20257;-67
2021/09/04 07:14:28;;;;;;;0.30;0.30;;;23.60;90.60;;;;;;5053828;28;20503;-67
2021/09/04 07:16:54;;;;;;;0.30;0.30;;;24.50;89.30;;;;;;5053653;28;20450;-68
2021/09/04 07:19:20;;;;;;;0.30;0.30;;;24.80;86.20;;;;;;5053978;28;20196;-68
2021/09/04 07:21:45;;;;;;;0.40;0.40;;;24.90;84.60;;;;;;5054035;28;20604;-68
2021/09/04 07:24:11;;;;;;;0.37;0.37;;;25.20;82.20;;;;;;5053830;28;20194;-67
2021/09/04 07:26:37;;;;;;;0.30;0.30;;;25.20;81.40;;;;;;5053823;28;20609;-66
2021/09/04 07:29:02;;;;;;;0.60;0.60;;;25.30;83.00;;;;;;5053820;28;20265;-66
2021/09/04 07:31:28;;;;;;;0.40;0.40;;;25.40;82.00;;;;;;5053854;28;20205;-69
2021/09/04 07:33:54;;;;;;;0.30;0.30;;;25.50;82.40;;;;;;5053781;28;20166;-68
2021/09/04 07:36:20;;;;;;;0.40;0.40;;;25.30;82.60;;;;;;5053251;28;20193;-69
2021/09/04 07:38:45;;;;;;;0.30;0.30;;;24.90;84.40;;;;;;5053524;28;20410;-68
2021/09/04 07:41:11;;;;;;;0.30;0.30;;;24.60;85.20;;;;;;5053600;28;20162;-67
2021/09/04 07:43:37;;;;;;;0.30;0.30;;;24.90;86.40;;;;;;5053667;28;20261;-67
2021/09/04 07:46:03;;;;;;;0.30;0.30;;;25.60;84.20;;;;;;5053056;28;20210;-67
2021/09/04 07:48:28;;;;;;;0.30;0.30;;;26.10;79.60;;;;;;5053385;28;20193;-66
2021/09/04 07:50:54;;;;;;;0.40;0.40;;;26.10;81.00;;;;;;5053619;28;20392;-66
2021/09/04 07:53:20;;;;;;;0.30;0.30;;;26.00;79.60;;;;;;5053573;28;20632;-69
2021/09/04 07:55:46;;;;;;;0.30;0.30;;;26.00;80.80;;;;;;5053043;28;20190;-69
2021/09/04 07:58:12;;;;;;;0.30;0.30;;;25.80;79.00;;;;;;5053266;28;20441;-69
2021/09/04 08:00:38;;;;;;;0.30;0.30;;;25.70;79.90;;;;;;5054498;28;20379;-69
2021/09/04 08:03:04;;;;;;;0.30;0.30;;;25.70;81.00;;;;;;5060081;28;20166;-67
2021/09/04 08:05:29;;;;;;;0.30;0.30;;;26.00;78.40;;;;;;5059615;28;20567;-67
2021/09/04 08:07:55;;;;;;;0.30;0.30;;;26.20;79.50;;;;;;5059890;28;20170;-65
2021/09/04 08:10:21;;;;;;;0.30;0.30;;;26.30;79.70;;;;;;5059701;28;20173;-66
2021/09/04 08:12:47;;;;;;;0.40;0.40;;;26.40;78.00;;;;;;5059942;28;20182;-69
2021/09/04 08:15:12;;;;;;;0.30;0.30;;;26.80;78.60;;;;;;5059907;28;20277;-67
2021/09/04 08:17:38;;;;;;;0.30;0.30;;;27.50;76.00;;;;;;5059685;28;20200;-67
2021/09/04 08:20:05;;;;;;;0.30;0.30;;;28.30;72.80;;;;;;5059645;28;20166;-69
2021/09/04 08:22:30;;;;;;;0.30;0.30;;;29.10;70.40;;;;;;5059999;28;20166;-67
2021/09/04 08:24:56;;;;;;;0.30;0.30;;;29.70;65.20;;;;;;5059985;28;20526;-68
2021/09/04 08:27:22;;;;;;;0.30;0.30;;;30.70;63.40;;;;;;5059764;28;20228;-69
2021/09/04 08:29:47;;;;;;;0.30;0.30;;;31.90;60.00;;;;;;5059864;28;20167;-69
2021/09/04 08:32:13;;;;;;;0.40;0.40;;;33.00;53.80;;;;;;5059746;28;20170;-68
2021/09/04 08:34:39;;;;;;;0.30;0.30;;;33.70;50.40;;;;;;5059729;28;20675;-68
2021/09/04 08:37:05;;;;;;;3.23;0.80;;;34.00;49.70;;;;;;5059461;28;20201;-67
2021/09/04 08:39:30;;;;;;;0.30;0.30;;;34.40;49.30;;;;;;5059674;28;20223;-67
2021/09/04 08:41:56;;;;;;;0.30;0.30;;;34.40;47.50;;;;;;5059538;28;20659;-67
2021/09/04 08:44:22;;;;;;;0.30;0.30;;;34.90;48.10;;;;;;5058395;28;20178;-67
2021/09/04 08:46:50;;;;;;;0.30;0.30;;;35.80;46.50;;;;;;5059213;28;20265;-67
2021/09/04 08:49:18;;;;;;;0.30;0.30;;;36.10;44.40;;;;;;5059557;28;20657;-68
2021/09/04 08:51:44;;;;;;;0.30;0.30;;;36.30;43.10;;;;;;5059564;28;20462;-67
2021/09/04 08:54:09;;;;;;;0.30;0.30;;;36.40;41.60;;;;;;5059662;28;20409;-69
2021/09/04 08:56:35;;;;;;;0.30;0.30;;;36.20;42.40;;;;;;5059150;28;20225;-68
2021/09/04 08:59:01;;;;;;;0.70;0.50;;;35.10;41.70;;;;;;5059686;28;20598;-68
2021/09/04 09:01:28;;;;;;;0.40;0.40;;;33.70;43.30;;;;;;5058748;28;20250;-69
2021/09/04 09:03:56;;;;;;;0.30;0.30;;;32.20;45.30;;;;;;5058917;28;20538;-67
2021/09/04 09:06:36;;;;;;;0.30;0.30;;;30.70;47.40;;;;;;5059140;28;20424;-70
2021/09/04 09:09:20;;;;;;;0.30;0.30;;;30.80;48.70;;;;;;5058152;28;20451;-67
2021/09/04 09:11:48;;;;;;;0.30;0.30;;;31.30;47.50;;;;;;5059043;28;20392;-68
2021/09/04 09:14:14;;;;;;;0.30;0.30;;;32.20;46.40;;;;;;5055363;28;20404;-67
2021/09/04 09:16:52;;;;;;;0.30;0.30;;;32.50;45.40;;;;;;5055935;28;20440;-69
2021/09/04 09:19:20;;;;;;;0.30;0.30;;;32.80;47.30;;;;;;5056117;28;20397;-69
2021/09/04 09:21:46;;;;;;;0.30;0.30;;;33.60;45.40;;;;;;5056216;28;20476;-70
2021/09/04 09:24:21;;;;;;;0.30;0.30;;;33.80;44.30;;;;;;5056164;28;20405;-69
2021/09/04 09:26:52;;;;;;;0.30;0.30;;;33.00;45.30;;;;;;5055939;28;20503;-69
2021/09/04 09:29:32;;;;;;;0.30;0.30;;;32.40;45.70;;;;;;5055956;28;20408;-68
2021/09/04 09:32:09;;;;;;;0.30;0.30;;;31.60;47.40;;;;;;5056103;28;20404;-69
2021/09/04 09:34:46;;;;;;;0.30;0.30;;;31.50;47.40;;;;;;5055816;28;20415;-69
2021/09/04 09:37:13;;;;;;;0.70;0.70;;;31.30;47.40;;;;;;5055505;28;20452;-68
2021/09/04 09:39:42;;;;;;;0.40;0.40;;;30.20;49.60;;;;;;5055884;28;20400;-68
2021/09/04 09:42:10;;;;;;;0.93;0.93;;;29.00;51.30;;;;;;5055744;28;20408;-68
2021/09/04 09:44:37;;;;;;;0.37;0.37;;;27.90;53.30;;;;;;5055620;28;20483;-68
2021/09/04 09:47:08;;;;;;;0.30;0.30;;;27.10;54.70;;;;;;5055417;28;20397;-67
2021/09/04 09:49:39;;;;;;;0.30;0.30;;;27.40;55.20;;;;;;5055508;28;20397;-68
2021/09/04 09:52:07;;;;;;;0.40;0.40;;;29.20;52.90;;;;;;5055607;28;20420;-67
2021/09/04 09:54:34;;;;;;;0.30;0.30;;;31.10;51.60;;;;;;5055385;28;20413;-67
2021/09/04 09:57:03;;;;;;;0.30;0.30;;;32.70;48.10;;;;;;5054012;28;20488;-69
2021/09/04 09:59:32;;;;;;;0.40;0.40;;;33.60;45.60;;;;;;5055505;28;20899;-69
2021/09/04 10:02:06;;;;;;;0.30;0.30;;;34.20;44.50;;;;;;5055172;28;20409;-69
2021/09/04 10:04:33;;;;;;;0.30;0.30;;;35.10;44.00;;;;;;5055360;28;20427;-68
2021/09/04 10:07:03;;;;;;;0.30;0.30;;;35.40;42.00;;;;;;5055170;28;20755;-68
2021/09/04 10:09:29;;;;;;;0.30;0.30;;;35.70;43.50;;;;;;5055154;28;20467;-70
2021/09/04 10:11:55;;;;;;;0.30;0.30;;;35.20;42.70;;;;;;5055391;28;20458;-68
2021/09/04 10:14:22;;;;;;;0.30;0.30;;;34.90;43.20;;;;;;5055133;28;20404;-69
2021/09/04 10:16:53;;;;;;;0.30;0.30;;;34.60;43.20;;;;;;5054701;28;20506;-66
2021/09/04 10:19:22;;;;;;;1.37;1.37;;;34.10;44.30;;;;;;5054949;28;20411;-69
2021/09/04 10:21:48;;;;;;;0.30;0.30;;;34.20;43.00;;;;;;5054992;28;20432;-67
2021/09/04 10:24:14;;;;;;;1.40;1.30;;;34.20;44.80;;;;;;5054707;28;20404;-69
2021/09/04 10:26:42;;;;;;;0.33;0.33;;;34.50;43.40;;;;;;5054562;28;20190;-67
2021/09/04 10:29:18;;;;;;;0.30;0.30;;;34.80;42.90;;;;;;5055015;28;20253;-69
2021/09/04 10:31:53;;;;;;;0.30;0.30;;;34.40;41.60;;;;;;5054909;28;20473;-69
2021/09/04 10:34:24;;;;;;;0.30;0.30;;;33.30;45.70;;;;;;5054826;28;20403;-69
2021/09/04 10:37:03;;;;;;;0.30;0.30;;;32.30;46.70;;;;;;5054399;28;20452;-66
2021/09/04 10:39:50;;;;;;;0.40;0.40;;;31.40;49.60;;;;;;5055003;28;20483;-69
2021/09/04 10:42:20;;;;;;;1.13;1.13;;;30.60;50.70;;;;;;5054598;28;20399;-67
2021/09/04 10:44:48;;;;;;;0.30;0.30;;;29.70;52.30;;;;;;5054455;28;20455;-69
2021/09/04 10:47:15;;;;;;;0.30;0.30;;;28.60;55.00;;;;;;5053054;28;20411;-66
2021/09/04 10:49:46;;;;;;;0.30;0.30;;;27.80;57.90;;;;;;5054504;28;20461;-67
2021/09/04 10:52:12;;;;;;;0.30;0.30;;;27.00;62.40;;;;;;5053770;28;20392;-68
2021/09/04 10:54:56;;;;;;;0.30;0.30;;;26.40;66.10;;;;;;5053940;28;20407;-68
2021/09/04 10:57:23;;;;;;;0.30;0.30;;;25.90;69.40;;;;;;5054166;28;20957;-66
2021/09/04 11:00:16;;;;;;;0.30;0.30;;;25.40;73.20;;;;;;5054358;28;20724;-67
2021/09/04 11:02:44;;;;;;;0.40;0.40;;;24.70;76.10;;;;;;5054333;28;20380;-69
2021/09/04 11:05:26;;;;;;;0.30;0.30;;;23.90;80.70;;;;;;5054089;28;20482;-69
2021/09/04 11:08:02;;;;;;;0.30;0.30;;;23.30;84.40;;;;;;5054118;28;20923;-68
2021/09/04 11:10:29;;;;;;;0.30;0.30;;;22.80;89.00;;;;;;5054134;28;20491;-68
2021/09/04 11:13:32;;;;;;;0.30;0.30;;;22.70;91.30;;;;;;5053876;28;20412;-68
2021/09/04 11:16:36;;;;;;;0.30;0.30;;;22.20;91.30;;;;;;5032242;28;20909;-68
2021/09/04 11:19:09;;;;;;;0.30;0.30;;;21.50;86.80;;;;;;5054023;28;20853;-67
2021/09/04 11:21:45;;;;;;;0.50;0.50;;;21.00;86.60;;;;;;5054173;28;20390;-69
2021/09/04 11:24:12;;;;;;;0.30;0.30;;;21.10;88.60;;;;;;5053829;28;20484;-67
2021/09/04 11:26:54;;;;;;;0.30;0.30;;;21.20;87.60;;;;;;5053448;28;20432;-68
2021/09/04 11:29:21;;;;;;;0.50;0.50;;;21.10;88.10;;;;;;5053860;28;20392;-69
2021/09/04 11:31:51;;;;;;;2.77;2.63;;;20.80;88.50;;;;;;5053612;28;20898;-68
2021/09/04 11:34:16;;;;;;;0.30;0.30;;;20.60;88.80;;;;;;5052351;28;20924;-68
2021/09/04 11:36:42;;;;;;;0.50;0.40;;;20.80;91.00;;;;;;5052796;28;20502;-69
2021/09/04 11:39:08;;;;;;;0.50;0.50;;;21.00;91.80;;;;;;5053667;28;20176;-69
2021/09/04 11:41:44;;;;;;;0.30;0.30;;;21.20;92.60;;;;;;5053667;28;20167;-68
2021/09/04 11:44:10;;;;;;;0.30;0.30;;;21.20;91.70;;;;;;5053688;28;20158;-66
2021/09/04 11:46:37;;;;;;;0.30;0.30;;;21.30;93.10;;;;;;5053125;28;20805;-68
2021/09/04 11:49:02;;;;;;;0.30;0.30;;;21.50;93.20;;;;;;5053469;28;21012;-66
2021/09/04 11:51:28;;;;;;;0.30;0.30;;;21.80;93.00;;;;;;5053592;28;20492;-68
2021/09/04 11:54:03;;;;;;;0.30;0.30;;;21.80;92.90;;;;;;5053534;28;20167;-68
2021/09/04 11:56:30;;;;;;;0.30;0.30;;;21.90;93.20;;;;;;5053096;28;20199;-66
2021/09/04 11:59:06;;;;;;;0.30;0.30;;;22.00;93.60;;;;;;5053356;28;20390;-69
2021/09/04 12:01:33;;;;;;;0.30;0.30;;;22.20;93.20;;;;;;5053512;28;20404;-67
2021/09/04 12:03:58;;;;;;;0.30;0.30;;;22.30;93.30;;;;;;5053409;28;20426;-67
2021/09/04 12:06:24;;;;;;;6.23;1.23;;;22.40;92.70;;;;;;5053006;28;20421;-66
2021/09/04 12:08:50;;;;;;;0.30;0.30;;;22.60;92.90;;;;;;5053879;28;20174;-68
2021/09/04 12:11:16;;;;;;;0.30;0.30;;;22.90;91.30;;;;;;5053372;28;20170;-69
2021/09/04 12:13:43;;;;;;;0.50;0.50;;;23.30;92.20;;;;;;5053153;28;20463;-67
2021/09/04 12:16:14;;;;;;;0.30;0.30;;;23.60;92.10;;;;;;5053000;28;20452;-69
2021/09/04 12:18:42;;;;;;;0.30;0.30;;;23.60;89.70;;;;;;5053370;28;20380;-68
2021/09/04 12:21:27;;;;;;;0.30;0.30;;;23.60;88.90;;;;;;5053354;28;20397;-69
2021/09/04 12:23:57;;;;;;;0.30;0.30;;;24.20;85.10;;;;;;5053288;28;20755;-66
2021/09/04 12:26:23;;;;;;;0.30;0.30;;;24.80;86.30;;;;;;5052937;28;20389;-69
2021/09/04 12:28:49;;;;;;;0.30;0.30;;;25.10;86.80;;;;;;5053114;28;20389;-67
2021/09/04 12:31:17;;;;;;;0.30;0.30;;;25.50;80.90;;;;;;5053589;28;20378;-68
2021/09/04 12:33:51;;;;;;;0.40;0.40;;;25.60;74.00;;;;;;5053127;28;20174;-66
2021/09/04 12:36:26;;;;;;;0.30;0.30;;;25.90;78.00;;;;;;5052734;28;20727;-67
2021/09/04 12:38:53;;;;;;;0.30;0.30;;;26.20;78.00;;;;;;5053018;28;20404;-67
2021/09/04 12:41:28;;;;;;;0.30;0.30;;;26.20;77.20;;;;;;5053040;28;20403;-67
2021/09/04 12:43:55;;;;;;;0.30;0.30;;;26.30;73.60;;;;;;5053154;28;20457;-68
2021/09/04 12:46:38;;;;;;;0.30;0.30;;;26.60;68.70;;;;;;5052465;28;20880;-66
2021/09/04 12:49:24;;;;;;;0.40;0.40;;;26.70;66.60;;;;;;5055615;28;20408;-67